Time;durP1;ratioP1;P1;durP2;ratioP2;P2;SDS_P1;SDS_P2;PMS_P1;PMS_P2;Temp;Humidity;BMP_temperature;BMP_pressure;BME280_temperature;BME280_humidity;BME280_pressure;Samples;Min_cycle;Max_cycle;Signal;HPM_P1;HPM_P2
2021/09/26 00:01:34;;;;;;;15.73;11.43;;;12.60;99.90;;;;;;5031640;28;20140;-46
2021/09/26 00:03:59;;;;;;;11.27;9.63;;;12.60;99.90;;;;;;5032126;28;20446;-49
2021/09/26 00:06:25;;;;;;;10.70;9.48;;;12.60;99.90;;;;;;5031479;28;20049;-48
2021/09/26 00:08:50;;;;;;;11.88;9.77;;;12.50;99.90;;;;;;5031934;28;20068;-44
2021/09/26 00:11:16;;;;;;;14.65;10.45;;;12.50;99.90;;;;;;5031754;28;20060;-42
2021/09/26 00:13:43;;;;;;;11.30;8.93;;;12.50;99.90;;;;;;5029303;28;20048;-43
2021/09/26 00:16:10;;;;;;;11.48;9.45;;;12.40;99.90;;;;;;5031929;28;20036;-47
2021/09/26 00:18:37;;;;;;;12.63;9.70;;;12.40;99.90;;;;;;5031660;28;20026;-45
2021/09/26 00:21:02;;;;;;;13.38;10.95;;;12.40;99.90;;;;;;5031707;28;20032;-43
2021/09/26 00:23:28;;;;;;;14.02;10.73;;;12.30;99.90;;;;;;5031672;28;20026;-42
2021/09/26 00:25:55;;;;;;;14.63;10.13;;;12.30;99.90;;;;;;5031357;28;20057;-43
2021/09/26 00:28:21;;;;;;;13.85;9.40;;;12.30;99.90;;;;;;5028185;28;20373;-42
2021/09/26 00:30:48;;;;;;;11.50;8.82;;;12.20;99.90;;;;;;5031232;28;20033;-44
2021/09/26 00:33:14;;;;;;;10.07;8.48;;;12.20;99.90;;;;;;5031648;28;20037;-42
2021/09/26 00:35:40;;;;;;;15.02;10.48;;;12.20;99.90;;;;;;5031237;28;20021;-43
2021/09/26 00:38:05;;;;;;;11.55;9.55;;;12.10;99.90;;;;;;5031289;28;20481;-42
2021/09/26 00:40:31;;;;;;;11.82;8.60;;;12.10;99.90;;;;;;5030940;28;20033;-44
2021/09/26 00:42:57;;;;;;;14.45;9.85;;;12.10;99.90;;;;;;5029664;28;20044;-42
2021/09/26 00:45:22;;;;;;;11.18;8.95;;;12.10;99.90;;;;;;5030095;28;20610;-43
2021/09/26 00:47:48;;;;;;;10.98;8.82;;;12.10;99.90;;;;;;5030944;28;20485;-43
2021/09/26 00:50:15;;;;;;;14.07;11.05;;;12.00;99.90;;;;;;5031182;28;20053;-47
2021/09/26 00:52:43;;;;;;;12.30;10.27;;;12.00;99.90;;;;;;5030862;28;20079;-42
2021/09/26 00:55:08;;;;;;;13.57;9.38;;;12.00;99.90;;;;;;5030988;28;20483;-42
2021/09/26 00:57:35;;;;;;;13.45;8.98;;;11.90;99.90;;;;;;5029986;28;20017;-41
2021/09/26 01:00:01;;;;;;;15.00;9.85;;;11.90;99.90;;;;;;5029827;28;20022;-43
2021/09/26 01:02:27;;;;;;;11.52;9.05;;;11.90;99.90;;;;;;5030681;28;20055;-44
2021/09/26 01:04:54;;;;;;;12.95;8.63;;;11.90;99.90;;;;;;5030861;28;20377;-45
2021/09/26 01:07:24;;;;;;;14.88;10.70;;;11.90;99.90;;;;;;5030774;28;20148;-42
2021/09/26 01:09:59;;;;;;;14.48;11.65;;;12.00;99.90;;;;;;5030894;28;20036;-44
2021/09/26 01:12:47;;;;;;;14.35;10.63;;;12.00;99.90;;;;;;5030594;28;20022;-44
2021/09/26 01:15:24;;;;;;;15.60;11.07;;;12.10;99.90;;;;;;5025648;28;20018;-42
2021/09/26 01:18:08;;;;;;;9.25;8.25;;;12.20;99.90;;;;;;5030709;28;20944;-45
2021/09/26 01:20:50;;;;;;;12.13;9.40;;;12.20;99.90;;;;;;5030688;28;20032;-42
2021/09/26 01:23:21;;;;;;;12.38;8.57;;;12.30;99.90;;;;;;5023924;28;20055;-42
2021/09/26 01:26:06;;;;;;;11.48;9.00;;;12.40;99.90;;;;;;5030569;28;20465;-43
2021/09/26 01:28:58;;;;;;;12.15;8.95;;;12.50;99.90;;;;;;5028920;28;20021;-44
2021/09/26 01:31:33;;;;;;;11.48;9.63;;;12.50;99.90;;;;;;5024136;28;20030;-42
2021/09/26 01:34:14;;;;;;;12.77;9.40;;;12.70;99.90;;;;;;5030451;28;20075;-42
2021/09/26 01:36:46;;;;;;;12.27;9.32;;;12.80;99.90;;;;;;5030619;28;20413;-46
2021/09/26 01:39:25;;;;;;;12.38;8.75;;;12.80;99.90;;;;;;5030426;28;20029;-47
2021/09/26 01:41:59;;;;;;;10.98;7.70;;;12.80;99.90;;;;;;5030405;28;20113;-50
2021/09/26 01:44:30;;;;;;;14.93;8.77;;;12.90;99.90;;;;;;5025541;28;20034;-47
2021/09/26 01:46:56;;;;;;;10.57;8.43;;;12.90;99.90;;;;;;5031335;28;20033;-49
2021/09/26 01:49:45;;;;;;;11.60;9.65;;;13.00;99.90;;;;;;5032291;28;20099;-47
2021/09/26 01:52:17;;;;;;;15.57;10.63;;;13.00;99.90;;;;;;5032201;28;20481;-48
2021/09/26 01:54:43;;;;;;;11.63;9.32;;;13.00;99.90;;;;;;5032094;28;20037;-46
2021/09/26 01:57:09;;;;;;;10.65;7.50;;;13.10;99.90;;;;;;5032239;28;20485;-49
2021/09/26 01:59:35;;;;;;;9.75;7.65;;;13.10;99.90;;;;;;5030725;28;20034;-44
2021/09/26 02:02:02;;;;;;;10.30;8.70;;;13.10;99.90;;;;;;5029948;28;20037;-49
2021/09/26 02:04:29;;;;;;;9.07;7.40;;;13.20;99.90;;;;;;5032156;28;20060;-43
2021/09/26 02:06:55;;;;;;;9.60;7.78;;;13.20;99.90;;;;;;5031926;28;20041;-50
2021/09/26 02:09:22;;;;;;;12.98;8.68;;;13.20;99.90;;;;;;5035182;28;20049;-46
2021/09/26 02:11:49;;;;;;;10.85;9.15;;;13.30;99.90;;;;;;5035966;28;20022;-46
2021/09/26 02:14:18;;;;;;;11.90;9.27;;;13.30;99.90;;;;;;5034330;28;20489;-45
2021/09/26 02:16:43;;;;;;;11.52;9.88;;;13.30;99.90;;;;;;5035741;28;20495;-46
2021/09/26 02:19:11;;;;;;;10.77;8.68;;;13.30;99.90;;;;;;5035750;28;20025;-43
2021/09/26 02:21:37;;;;;;;11.27;9.02;;;13.40;99.90;;;;;;5035745;28;20021;-45
2021/09/26 02:24:04;;;;;;;12.65;9.85;;;13.40;99.90;;;;;;5035975;28;20504;-44
2021/09/26 02:26:32;;;;;;;14.05;10.32;;;13.40;99.90;;;;;;5035838;28;20087;-51
2021/09/26 02:28:58;;;;;;;9.93;8.02;;;13.40;99.90;;;;;;5034417;28;20037;-45
2021/09/26 02:31:23;;;;;;;8.48;6.75;;;13.40;99.90;;;;;;5035514;28;20033;-49
2021/09/26 02:33:49;;;;;;;9.27;7.13;;;13.40;99.90;;;;;;5035357;28;20108;-45
2021/09/26 02:36:16;;;;;;;14.95;10.70;;;13.50;99.90;;;;;;5035623;28;20026;-43
2021/09/26 02:38:42;;;;;;;9.40;7.57;;;13.50;99.90;;;;;;5034315;28;20104;-46
2021/09/26 02:41:26;;;;;;;15.70;11.52;;;13.50;99.90;;;;;;5031726;28;20030;-45
2021/09/26 02:44:17;;;;;;;12.45;10.40;;;13.50;99.90;;;;;;5033622;28;20108;-45
2021/09/26 02:46:47;;;;;;;14.52;11.52;;;13.60;99.90;;;;;;5035148;28;20444;-43
2021/09/26 02:49:12;;;;;;;10.77;8.80;;;13.60;99.90;;;;;;5035193;28;20035;-42
2021/09/26 02:51:40;;;;;;;10.60;7.70;;;13.60;99.90;;;;;;5035151;28;20029;-45
2021/09/26 02:54:07;;;;;;;16.38;12.52;;;13.60;99.90;;;;;;5034783;28;20025;-42
2021/09/26 02:56:33;;;;;;;15.55;10.95;;;13.70;99.90;;;;;;5035183;28;20075;-44
2021/09/26 02:59:00;;;;;;;14.13;10.02;;;13.70;99.90;;;;;;5033654;28;20489;-43
2021/09/26 03:01:27;;;;;;;11.68;9.27;;;13.70;99.90;;;;;;5035055;28;20017;-42
2021/09/26 03:03:59;;;;;;;14.35;11.07;;;13.80;99.90;;;;;;5034819;28;20021;-42
2021/09/26 03:06:25;;;;;;;19.92;12.63;;;13.80;99.90;;;;;;5034850;28;20432;-42
2021/09/26 03:08:50;;;;;;;16.35;12.35;;;13.90;99.90;;;;;;5034595;28;20052;-42
2021/09/26 03:11:16;;;;;;;11.15;9.23;;;13.90;99.90;;;;;;5034869;28;20064;-42
2021/09/26 03:13:41;;;;;;;14.38;10.25;;;14.00;99.90;;;;;;5031279;28;20069;-42
2021/09/26 03:16:07;;;;;;;11.98;9.10;;;13.90;99.90;;;;;;5014999;28;20030;-43
2021/09/26 03:18:33;;;;;;;11.10;8.35;;;14.00;99.90;;;;;;5014950;28;20358;-45
2021/09/26 03:20:58;;;;;;;11.45;9.23;;;14.00;99.90;;;;;;5012818;28;20034;-42
2021/09/26 03:23:24;;;;;;;13.40;10.90;;;14.00;99.90;;;;;;5014727;28;20058;-42
2021/09/26 03:25:49;;;;;;;13.20;9.52;;;14.10;99.90;;;;;;5014713;28;20141;-41
2021/09/26 03:28:15;;;;;;;12.63;10.30;;;14.10;99.90;;;;;;5013493;28;20025;-45
2021/09/26 03:30:41;;;;;;;13.85;11.30;;;14.10;99.90;;;;;;5014781;28;20033;-44
2021/09/26 03:33:06;;;;;;;19.15;12.45;;;14.10;99.90;;;;;;5014433;28;20038;-43
2021/09/26 03:35:32;;;;;;;15.80;11.70;;;14.10;99.90;;;;;;5014661;28;20025;-45
2021/09/26 03:37:57;;;;;;;16.58;12.43;;;14.10;99.90;;;;;;5014283;28;20092;-43
2021/09/26 03:40:23;;;;;;;19.73;13.77;;;14.20;99.90;;;;;;5019319;28;20097;-46
2021/09/26 03:42:49;;;;;;;15.65;10.77;;;14.20;99.90;;;;;;5013136;28;20049;-42
2021/09/26 03:45:14;;;;;;;15.55;11.05;;;14.20;99.90;;;;;;5014380;28;20101;-42
2021/09/26 03:47:40;;;;;;;15.90;11.10;;;14.20;99.90;;;;;;5014237;28;20500;-42
2021/09/26 03:50:07;;;;;;;16.92;12.80;;;14.20;99.90;;;;;;5014260;28;20048;-45
2021/09/26 03:52:34;;;;;;;16.92;12.02;;;14.20;99.90;;;;;;5013923;28;20113;-44
2021/09/26 03:55:01;;;;;;;15.80;11.90;;;14.30;99.90;;;;;;5014278;28;20026;-42
2021/09/26 03:57:26;;;;;;;14.32;11.10;;;14.30;99.90;;;;;;5014378;28;20535;-43
2021/09/26 03:59:52;;;;;;;18.13;13.15;;;14.30;99.90;;;;;;5012809;28;20030;-42
2021/09/26 04:02:17;;;;;;;12.60;10.20;;;14.30;99.90;;;;;;5014036;28;20049;-42
2021/09/26 04:04:43;;;;;;;15.02;11.80;;;14.40;99.90;;;;;;5013956;28;20386;-45
2021/09/26 04:07:08;;;;;;;8.70;7.80;;;14.40;99.90;;;;;;5013827;28;20517;-42
2021/09/26 04:09:34;;;;;;;11.15;8.95;;;14.40;99.90;;;;;;5013873;28;20049;-42
2021/09/26 04:11:59;;;;;;;11.48;8.80;;;14.40;99.90;;;;;;5013985;28;20045;-43
2021/09/26 04:14:25;;;;;;;10.65;8.35;;;14.40;99.90;;;;;;5020759;28;20056;-43
2021/09/26 04:16:52;;;;;;;9.30;7.95;;;14.50;99.90;;;;;;5033603;28;20060;-44
2021/09/26 04:19:18;;;;;;;12.18;9.32;;;14.50;99.90;;;;;;5031890;28;20022;-43
2021/09/26 04:21:44;;;;;;;11.02;9.40;;;14.40;99.90;;;;;;5033652;28;20040;-45
2021/09/26 04:24:11;;;;;;;11.45;9.70;;;14.50;99.90;;;;;;5033392;28;20518;-42
2021/09/26 04:26:37;;;;;;;11.98;8.98;;;14.50;99.90;;;;;;5033558;28;20025;-42
2021/09/26 04:29:03;;;;;;;8.75;7.35;;;14.50;99.90;;;;;;5031916;28;20029;-45
2021/09/26 04:31:28;;;;;;;10.95;8.63;;;14.50;99.90;;;;;;5033103;28;20033;-42
2021/09/26 04:33:54;;;;;;;9.48;7.57;;;14.50;99.90;;;;;;5032945;28;20030;-42
2021/09/26 04:36:19;;;;;;;10.90;8.32;;;14.50;99.90;;;;;;5033125;28;20037;-42
2021/09/26 04:38:45;;;;;;;8.27;7.38;;;14.50;99.90;;;;;;5033081;28;20076;-45
2021/09/26 04:41:10;;;;;;;10.00;7.70;;;14.50;99.90;;;;;;5016858;28;20061;-47
2021/09/26 04:43:36;;;;;;;12.15;9.02;;;14.50;99.90;;;;;;5012067;28;20030;-47
2021/09/26 04:46:01;;;;;;;10.43;8.82;;;14.50;99.90;;;;;;5013325;28;20374;-51
2021/09/26 04:48:27;;;;;;;11.60;9.30;;;14.60;99.90;;;;;;5013137;28;20512;-46
2021/09/26 04:50:52;;;;;;;13.43;8.73;;;14.60;99.90;;;;;;5013148;28;20417;-47
2021/09/26 04:53:18;;;;;;;12.23;9.15;;;14.60;99.90;;;;;;5013273;28;20380;-51
2021/09/26 04:55:43;;;;;;;13.90;10.05;;;14.60;99.90;;;;;;5013234;28;20477;-47
2021/09/26 04:58:10;;;;;;;8.68;7.78;;;14.60;99.90;;;;;;5011740;28;20029;-48
2021/09/26 05:00:36;;;;;;;10.45;8.07;;;14.50;99.90;;;;;;5013090;28;20025;-49
2021/09/26 05:03:02;;;;;;;9.98;8.00;;;14.50;99.90;;;;;;5012810;28;20026;-45
2021/09/26 05:05:28;;;;;;;10.90;8.38;;;14.50;99.90;;;;;;5012937;28;20030;-47
2021/09/26 05:07:53;;;;;;;17.10;10.70;;;14.60;99.90;;;;;;5012846;28;20061;-48
2021/09/26 05:10:19;;;;;;;12.70;9.32;;;14.60;99.90;;;;;;5012903;28;20096;-48
2021/09/26 05:12:44;;;;;;;12.23;9.55;;;14.60;99.90;;;;;;5011664;28;20026;-42
2021/09/26 05:15:10;;;;;;;12.70;9.52;;;14.60;99.90;;;;;;5027019;28;20029;-47
2021/09/26 05:17:36;;;;;;;11.05;8.30;;;14.60;99.90;;;;;;5032627;28;20017;-50
2021/09/26 05:20:02;;;;;;;13.60;10.77;;;14.60;99.90;;;;;;5032142;28;20112;-45
2021/09/26 05:22:28;;;;;;;14.77;8.68;;;14.60;99.90;;;;;;5032597;28;20053;-45
2021/09/26 05:24:54;;;;;;;14.25;10.05;;;14.60;99.90;;;;;;5032385;28;20111;-46
2021/09/26 05:27:20;;;;;;;16.95;11.80;;;14.70;99.90;;;;;;5032576;28;20026;-42
2021/09/26 05:29:45;;;;;;;16.50;12.10;;;14.70;99.90;;;;;;5031087;28;20100;-47
2021/09/26 05:32:11;;;;;;;12.02;9.98;;;14.80;99.90;;;;;;5032518;28;20033;-46
2021/09/26 05:34:37;;;;;;;14.38;10.75;;;14.80;99.90;;;;;;5032105;28;20035;-45
2021/09/26 05:37:02;;;;;;;18.00;12.85;;;14.80;99.90;;;;;;5032340;28;20026;-43
2021/09/26 05:39:28;;;;;;;14.15;10.85;;;14.90;99.90;;;;;;5029759;28;20063;-43
2021/09/26 05:41:55;;;;;;;16.20;11.88;;;14.90;99.90;;;;;;5012748;28;20041;-49
2021/09/26 05:44:21;;;;;;;14.60;10.95;;;15.00;99.90;;;;;;5014473;28;20054;-42
2021/09/26 05:46:47;;;;;;;14.85;10.15;;;15.00;99.90;;;;;;5016996;28;20440;-46
2021/09/26 05:49:13;;;;;;;16.23;12.63;;;15.10;99.90;;;;;;5016201;28;20416;-45
2021/09/26 05:51:38;;;;;;;16.20;12.20;;;15.20;99.90;;;;;;5016662;28;20057;-44
2021/09/26 05:54:04;;;;;;;14.93;11.77;;;15.30;99.90;;;;;;5016300;28;20034;-44
2021/09/26 05:56:29;;;;;;;19.40;14.55;;;15.40;99.90;;;;;;5016659;28;20025;-43
2021/09/26 05:58:55;;;;;;;15.75;12.52;;;15.40;99.90;;;;;;5014958;28;20026;-46
2021/09/26 06:01:20;;;;;;;15.90;12.55;;;15.50;99.90;;;;;;5016574;28;20076;-44
2021/09/26 06:03:46;;;;;;;16.05;12.45;;;15.60;99.90;;;;;;5020276;28;20124;-45
2021/09/26 06:06:12;;;;;;;15.13;12.38;;;15.70;99.90;;;;;;5007152;28;20084;-42
2021/09/26 06:08:37;;;;;;;16.25;12.30;;;15.80;99.90;;;;;;5032997;28;20028;-42
2021/09/26 06:11:05;;;;;;;16.90;12.50;;;15.80;99.90;;;;;;5029581;28;20026;-45
2021/09/26 06:13:30;;;;;;;15.25;12.13;;;16.00;99.90;;;;;;5048739;28;20029;-44
2021/09/26 06:15:56;;;;;;;15.65;11.48;;;16.30;99.90;;;;;;5034362;28;20423;-43
2021/09/26 06:18:22;;;;;;;15.23;10.77;;;16.50;99.90;;;;;;5034144;28;20030;-45
2021/09/26 06:20:48;;;;;;;14.77;11.50;;;16.50;99.90;;;;;;5031073;28;20083;-45
2021/09/26 06:23:14;;;;;;;13.70;11.27;;;16.60;99.90;;;;;;5033813;28;20051;-43
2021/09/26 06:25:40;;;;;;;26.15;13.68;;;16.60;99.90;;;;;;5034161;28;20447;-43
2021/09/26 06:28:05;;;;;;;17.20;13.68;;;16.60;99.90;;;;;;5034331;28;20108;-46
2021/09/26 06:30:32;;;;;;;16.85;12.27;;;16.60;99.90;;;;;;5053570;28;20044;-44
2021/09/26 06:32:57;;;;;;;16.50;11.45;;;16.60;99.90;;;;;;5053758;28;20063;-43
2021/09/26 06:35:24;;;;;;;17.73;13.35;;;16.80;99.90;;;;;;5053266;28;20124;-45
2021/09/26 06:37:50;;;;;;;18.92;13.65;;;16.80;99.90;;;;;;5039096;28;20476;-43
2021/09/26 06:40:15;;;;;;;14.35;10.73;;;16.90;99.90;;;;;;5035911;28;20501;-47
2021/09/26 06:42:41;;;;;;;18.55;12.35;;;17.10;99.90;;;;;;5032631;28;20032;-44
2021/09/26 06:45:08;;;;;;;14.00;11.13;;;17.20;99.90;;;;;;5031572;28;20477;-45
2021/09/26 06:47:33;;;;;;;18.60;13.70;;;17.30;99.90;;;;;;5050453;28;20056;-45
2021/09/26 06:49:59;;;;;;;19.02;14.57;;;17.50;99.90;;;;;;5053129;28;20056;-47
2021/09/26 06:52:24;;;;;;;13.63;10.77;;;17.70;99.90;;;;;;5053024;28;20476;-43
2021/09/26 06:54:50;;;;;;;14.27;11.35;;;18.00;99.90;;;;;;5051943;28;20032;-46
2021/09/26 06:57:15;;;;;;;14.80;12.23;;;18.20;99.90;;;;;;5052897;28;20044;-45
2021/09/26 06:59:41;;;;;;;14.57;11.13;;;18.40;99.90;;;;;;5052176;28;20071;-43
2021/09/26 07:02:07;;;;;;;12.98;9.63;;;19.20;99.90;;;;;;5052932;28;20092;-43
2021/09/26 07:04:34;;;;;;;12.77;11.07;;;20.40;99.90;;;;;;5026938;28;20071;-43
2021/09/26 07:06:59;;;;;;;10.00;8.90;;;21.20;99.90;;;;;;5032855;28;20041;-45
2021/09/26 07:09:25;;;;;;;13.50;9.73;;;21.40;99.90;;;;;;5032651;28;20022;-43
2021/09/26 07:11:50;;;;;;;10.35;9.23;;;21.90;99.90;;;;;;5031439;28;20397;-50
2021/09/26 07:14:16;;;;;;;10.95;9.10;;;22.70;99.90;;;;;;5033460;28;20040;-52
2021/09/26 07:16:41;;;;;;;10.13;8.73;;;23.70;99.90;;;;;;5034391;28;20036;-50
2021/09/26 07:19:07;;;;;;;8.75;7.55;;;24.40;99.90;;;;;;5034329;28;20034;-51
2021/09/26 07:21:32;;;;;;;11.27;7.35;;;25.00;99.90;;;;;;5034559;28;20350;-47
2021/09/26 07:23:58;;;;;;;7.15;6.45;;;25.40;99.90;;;;;;5034799;28;20033;-48
2021/09/26 07:26:23;;;;;;;8.00;6.80;;;26.00;99.90;;;;;;5034529;28;20035;-46
2021/09/26 07:28:49;;;;;;;7.75;7.03;;;26.60;99.90;;;;;;5029566;28;20033;-49
2021/09/26 07:31:16;;;;;;;8.10;7.30;;;26.80;89.70;;;;;;5034239;28;20045;-49
2021/09/26 07:33:42;;;;;;;11.30;8.25;;;26.40;92.60;;;;;;5033782;28;20037;-50
2021/09/26 07:36:08;;;;;;;7.82;7.03;;;26.10;95.60;;;;;;5031980;28;20072;-50
2021/09/26 07:38:33;;;;;;;7.80;7.10;;;26.60;98.40;;;;;;5034211;28;20021;-46
2021/09/26 07:40:59;;;;;;;7.28;6.45;;;26.70;96.30;;;;;;5034198;28;20068;-49
2021/09/26 07:43:25;;;;;;;8.55;6.50;;;27.50;94.30;;;;;;5033201;28;20048;-53
2021/09/26 07:45:52;;;;;;;7.57;6.78;;;27.70;74.30;;;;;;5033997;28;20049;-55
2021/09/26 07:48:18;;;;;;;9.07;6.15;;;27.50;75.60;;;;;;5033760;28;20025;-53
2021/09/26 07:50:43;;;;;;;8.65;6.35;;;27.30;83.20;;;;;;5016001;28;20026;-50
2021/09/26 07:53:08;;;;;;;6.75;6.07;;;27.10;76.30;;;;;;5014008;28;20471;-54
2021/09/26 07:55:34;;;;;;;6.43;5.35;;;27.00;86.60;;;;;;5014126;28;20523;-54
2021/09/26 07:57:59;;;;;;;7.13;5.10;;;27.10;77.60;;;;;;5013317;28;20033;-53
2021/09/26 08:00:25;;;;;;;5.47;4.97;;;27.00;86.70;;;;;;5013894;28;20053;-52
2021/09/26 08:02:50;;;;;;;6.05;5.45;;;27.20;87.90;;;;;;5018934;28;20021;-51
2021/09/26 08:05:16;;;;;;;6.57;5.75;;;26.80;73.70;;;;;;5013696;28;20041;-49
2021/09/26 08:07:41;;;;;;;6.68;5.93;;;26.40;86.00;;;;;;5013465;28;20133;-53
2021/09/26 08:10:08;;;;;;;6.43;5.82;;;26.10;78.40;;;;;;5013774;28;20022;-53
2021/09/26 08:12:34;;;;;;;6.40;5.47;;;25.60;84.60;;;;;;5012942;28;20029;-52
2021/09/26 08:15:00;;;;;;;5.38;4.68;;;25.70;88.40;;;;;;5026215;28;20029;-56
2021/09/26 08:17:26;;;;;;;6.00;5.40;;;26.00;90.80;;;;;;5033064;28;20441;-54
2021/09/26 08:19:51;;;;;;;5.53;4.82;;;25.80;79.60;;;;;;5033296;28;20039;-54
2021/09/26 08:22:17;;;;;;;6.15;5.53;;;25.70;88.10;;;;;;5033133;28;20124;-54
2021/09/26 08:24:43;;;;;;;6.00;4.57;;;25.40;78.90;;;;;;5033446;28;20026;-55
2021/09/26 08:27:09;;;;;;;5.55;4.72;;;25.30;90.00;;;;;;5033353;28;20404;-54
2021/09/26 08:29:35;;;;;;;5.28;4.32;;;25.20;78.30;;;;;;5032182;28;20041;-51
2021/09/26 08:32:01;;;;;;;4.57;4.13;;;25.10;84.90;;;;;;5033349;28;20409;-55
2021/09/26 08:34:26;;;;;;;4.82;4.43;;;25.40;87.60;;;;;;5033160;28;20113;-57
2021/09/26 08:36:52;;;;;;;6.15;4.50;;;25.20;83.00;;;;;;5033047;28;20105;-53
2021/09/26 08:39:18;;;;;;;4.97;4.28;;;25.00;81.80;;;;;;5032888;28;20029;-57
2021/09/26 08:41:44;;;;;;;4.10;3.70;;;24.80;87.90;;;;;;5032946;28;20021;-52
2021/09/26 08:44:10;;;;;;;4.43;3.83;;;24.80;72.50;;;;;;5032047;28;20370;-52
2021/09/26 08:46:36;;;;;;;4.95;3.42;;;24.50;77.00;;;;;;5032860;28;20026;-51
2021/09/26 08:49:02;;;;;;;4.80;4.15;;;24.50;83.70;;;;;;4980690;28;20037;-58
2021/09/26 08:51:28;;;;;;;5.90;3.90;;;24.70;75.30;;;;;;5033005;28;20042;-55
2021/09/26 08:53:54;;;;;;;3.83;3.20;;;24.60;74.80;;;;;;5032685;28;20496;-57
2021/09/26 08:56:23;;;;;;;4.82;3.60;;;24.60;79.60;;;;;;5032585;28;20021;-56
2021/09/26 08:58:49;;;;;;;4.03;3.63;;;24.80;81.20;;;;;;5031968;28;20043;-51
2021/09/26 09:01:16;;;;;;;4.80;4.35;;;25.10;78.20;;;;;;5032604;28;20108;-57
2021/09/26 09:03:47;;;;;;;4.55;3.97;;;25.00;73.10;;;;;;5026233;28;20033;-51
2021/09/26 09:06:13;;;;;;;4.57;4.15;;;25.00;76.60;;;;;;5012841;28;20092;-56
2021/09/26 09:08:40;;;;;;;6.63;4.53;;;24.90;65.80;;;;;;5013019;28;20060;-53
2021/09/26 09:11:06;;;;;;;4.57;4.18;;;24.80;69.70;;;;;;5013020;28;20443;-52
2021/09/26 09:13:36;;;;;;;5.40;4.13;;;24.80;70.00;;;;;;5012954;28;20037;-54
2021/09/26 09:16:14;;;;;;;4.43;4.03;;;24.90;72.70;;;;;;5032474;28;20084;-56
2021/09/26 09:18:53;;;;;;;4.57;4.18;;;24.90;67.60;;;;;;5031808;28;20025;-55
2021/09/26 09:21:24;;;;;;;5.07;3.95;;;25.00;70.20;;;;;;5032541;28;20022;-55
2021/09/26 09:23:54;;;;;;;5.00;4.25;;;25.00;67.50;;;;;;5032560;28;20321;-52
2021/09/26 09:26:33;;;;;;;4.70;4.20;;;24.60;72.10;;;;;;5032238;28;20083;-53
2021/09/26 09:29:00;;;;;;;4.88;3.97;;;24.50;71.60;;;;;;5031628;28;20060;-50
2021/09/26 09:31:25;;;;;;;4.78;3.92;;;24.60;72.30;;;;;;5032493;28;20069;-53
2021/09/26 09:33:52;;;;;;;4.70;4.30;;;24.60;72.90;;;;;;5032511;28;20034;-53
2021/09/26 09:36:22;;;;;;;7.93;4.93;;;24.70;71.50;;;;;;5032298;28;20053;-55
2021/09/26 09:38:50;;;;;;;6.03;4.97;;;24.60;69.60;;;;;;5032283;28;20025;-54
2021/09/26 09:41:35;;;;;;;4.90;4.45;;;24.60;70.80;;;;;;5032030;28;20168;-56
2021/09/26 09:44:07;;;;;;;4.60;4.07;;;24.60;70.40;;;;;;5031493;28;20033;-50
2021/09/26 09:46:39;;;;;;;5.40;4.20;;;24.60;70.50;;;;;;5032131;28;20040;-55
2021/09/26 09:49:18;;;;;;;5.40;4.63;;;24.50;72.20;;;;;;5032264;28;20032;-52
2021/09/26 09:52:00;;;;;;;4.90;4.50;;;24.60;70.60;;;;;;5032141;28;20033;-50
2021/09/26 09:54:37;;;;;;;5.35;4.85;;;24.70;68.90;;;;;;5031978;28;20022;-51
2021/09/26 09:57:32;;;;;;;8.63;5.05;;;24.50;69.30;;;;;;5032273;28;20028;-54
2021/09/26 09:59:57;;;;;;;6.53;4.55;;;24.20;73.50;;;;;;5023108;28;20405;-55
2021/09/26 10:02:33;;;;;;;5.78;5.18;;;24.00;73.30;;;;;;5032092;28;20029;-54
2021/09/26 10:04:59;;;;;;;5.53;5.03;;;23.80;76.20;;;;;;5014925;28;20033;-53
2021/09/26 10:07:28;;;;;;;6.43;4.72;;;23.70;76.50;;;;;;5012166;28;20053;-50
2021/09/26 10:09:55;;;;;;;4.65;4.22;;;23.80;75.40;;;;;;5012405;28;20029;-52
2021/09/26 10:12:24;;;;;;;5.10;4.60;;;23.80;75.10;;;;;;5012251;28;20495;-55
2021/09/26 10:14:56;;;;;;;6.30;4.75;;;24.00;73.50;;;;;;5022999;28;20022;-54
2021/09/26 10:17:23;;;;;;;5.28;4.70;;;24.00;73.10;;;;;;5031977;28;20022;-54
2021/09/26 10:19:48;;;;;;;7.63;5.30;;;23.90;74.30;;;;;;5032106;28;20026;-56
2021/09/26 10:22:17;;;;;;;5.00;4.60;;;23.80;76.30;;;;;;5032080;28;20366;-55
2021/09/26 10:24:54;;;;;;;4.90;4.45;;;23.80;76.60;;;;;;5031775;28;20037;-53
2021/09/26 10:27:23;;;;;;;6.72;5.35;;;23.80;76.60;;;;;;5031927;28;20143;-54
2021/09/26 10:30:01;;;;;;;6.20;5.28;;;23.70;75.80;;;;;;5031867;28;20589;-53
2021/09/26 10:32:27;;;;;;;5.95;4.10;;;23.60;76.90;;;;;;5035654;28;20029;-54
2021/09/26 10:34:53;;;;;;;5.03;4.43;;;23.60;76.30;;;;;;5035691;28;20107;-55
2021/09/26 10:37:22;;;;;;;5.97;5.00;;;23.70;76.90;;;;;;5035421;28;20037;-54
2021/09/26 10:39:49;;;;;;;8.65;5.15;;;23.80;78.30;;;;;;5022521;28;20057;-54
2021/09/26 10:42:24;;;;;;;5.68;4.75;;;23.80;76.40;;;;;;5014330;28;20527;-53
2021/09/26 10:44:58;;;;;;;5.47;4.93;;;23.80;76.60;;;;;;5014788;28;20068;-56
2021/09/26 10:47:26;;;;;;;5.95;4.53;;;23.80;74.20;;;;;;5015529;28;20092;-49
2021/09/26 10:49:57;;;;;;;4.85;4.13;;;23.70;76.10;;;;;;5015431;28;20044;-56
2021/09/26 10:52:33;;;;;;;6.15;4.20;;;23.70;76.30;;;;;;5015469;28;20036;-52
2021/09/26 10:55:24;;;;;;;6.25;4.53;;;23.80;72.40;;;;;;5015411;28;20484;-56
2021/09/26 10:58:10;;;;;;;5.22;3.72;;;23.80;73.00;;;;;;5014335;28;20100;-55
2021/09/26 11:00:39;;;;;;;5.18;3.92;;;23.90;72.40;;;;;;5015368;28;20022;-55
2021/09/26 11:03:16;;;;;;;5.38;4.07;;;23.90;71.90;;;;;;5020398;28;20029;-54
2021/09/26 11:05:48;;;;;;;5.75;4.03;;;23.90;71.20;;;;;;5014769;28;20109;-53
2021/09/26 11:08:36;;;;;;;7.18;3.97;;;23.90;71.20;;;;;;5015118;28;20144;-54
2021/09/26 11:11:04;;;;;;;7.95;4.28;;;23.90;71.20;;;;;;5014947;28;20030;-54
2021/09/26 11:13:33;;;;;;;4.25;3.85;;;23.90;72.20;;;;;;5014678;28;20052;-53
2021/09/26 11:16:01;;;;;;;5.03;4.40;;;23.90;69.80;;;;;;5034978;28;20156;-54
2021/09/26 11:18:54;;;;;;;5.93;4.28;;;23.90;70.40;;;;;;5034713;28;20041;-48
2021/09/26 11:21:35;;;;;;;4.00;3.60;;;24.10;70.40;;;;;;5033849;28;20350;-53
2021/09/26 11:24:02;;;;;;;5.57;3.28;;;24.30;66.50;;;;;;5034746;28;20059;-55
2021/09/26 11:26:56;;;;;;;3.75;3.45;;;24.40;66.80;;;;;;5034747;28;20500;-57
2021/09/26 11:29:28;;;;;;;4.80;3.60;;;24.60;63.30;;;;;;5033480;28;20039;-57
2021/09/26 11:31:54;;;;;;;5.03;4.30;;;24.90;64.40;;;;;;5034480;28;20567;-55
2021/09/26 11:34:35;;;;;;;4.32;3.60;;;24.80;61.40;;;;;;5034514;28;20086;-56
2021/09/26 11:37:04;;;;;;;3.95;3.45;;;25.00;59.40;;;;;;5034599;28;20468;-55
2021/09/26 11:39:30;;;;;;;4.65;3.92;;;25.10;61.10;;;;;;5034500;28;20112;-55
2021/09/26 11:41:57;;;;;;;4.13;3.63;;;25.10;58.60;;;;;;5033186;28;20029;-54
2021/09/26 11:44:23;;;;;;;4.63;3.72;;;25.00;59.70;;;;;;5033532;28;20037;-53
2021/09/26 11:46:51;;;;;;;7.22;4.47;;;25.00;59.80;;;;;;5034297;28;20163;-57
2021/09/26 11:49:17;;;;;;;4.30;3.83;;;24.90;58.70;;;;;;5034339;28;20025;-57
2021/09/26 11:51:43;;;;;;;4.95;3.53;;;24.80;60.40;;;;;;5034293;28;20370;-55
2021/09/26 11:54:10;;;;;;;4.30;3.70;;;24.70;60.60;;;;;;5034009;28;20471;-54
2021/09/26 11:56:38;;;;;;;3.47;3.17;;;24.60;60.80;;;;;;5033911;28;20021;-54
2021/09/26 11:59:05;;;;;;;4.97;3.58;;;24.60;61.90;;;;;;5033025;28;20048;-54
2021/09/26 12:01:39;;;;;;;6.40;3.58;;;24.60;62.90;;;;;;5034114;28;20025;-53
2021/09/26 12:04:11;;;;;;;4.50;4.10;;;24.70;61.30;;;;;;5023799;28;20032;-51
2021/09/26 12:06:38;;;;;;;5.95;4.03;;;24.50;63.90;;;;;;5013985;28;20053;-53
2021/09/26 12:09:05;;;;;;;5.13;4.07;;;24.40;63.10;;;;;;5013907;28;20026;-54
2021/09/26 12:11:30;;;;;;;4.95;3.45;;;24.30;64.10;;;;;;5014173;28;20022;-55
2021/09/26 12:13:57;;;;;;;4.03;3.63;;;24.40;63.70;;;;;;5017108;28;20038;-55
2021/09/26 12:16:25;;;;;;;5.00;4.13;;;24.60;62.00;;;;;;5033824;28;20071;-54
2021/09/26 12:18:55;;;;;;;3.60;3.13;;;24.60;60.10;;;;;;5033502;28;20108;-54
2021/09/26 12:21:25;;;;;;;4.72;4.13;;;24.70;59.60;;;;;;5033721;28;20026;-56
2021/09/26 12:23:55;;;;;;;4.22;3.83;;;24.70;59.40;;;;;;5033420;28;20079;-50
2021/09/26 12:26:26;;;;;;;8.02;3.80;;;24.60;60.00;;;;;;5033646;28;20029;-53
2021/09/26 12:29:01;;;;;;;4.68;3.85;;;24.50;59.90;;;;;;5032322;28;20033;-52
2021/09/26 12:31:29;;;;;;;5.67;3.57;;;24.50;59.80;;;;;;5033422;28;20133;-55
2021/09/26 12:33:56;;;;;;;5.20;3.72;;;24.50;60.70;;;;;;5033197;28;20040;-51
2021/09/26 12:36:23;;;;;;;4.93;4.13;;;24.50;60.40;;;;;;5033369;28;20064;-55
2021/09/26 12:38:54;;;;;;;4.97;3.63;;;24.50;61.10;;;;;;5031957;28;20469;-54
2021/09/26 12:41:19;;;;;;;4.03;3.40;;;24.50;61.00;;;;;;5033420;28;20038;-56
2021/09/26 12:44:24;;;;;;;5.38;3.63;;;24.50;60.80;;;;;;5031947;28;20029;-55